sensor_id;sensor_type;location;lat;lon;timestamp;P1;durP1;ratioP1;P2;durP2;ratioP2
12966;SDS011;6548;49.996;8.238;2022-07-23T00:00:54;7.28;;;5.00;;
12966;SDS011;6548;49.996;8.238;2022-07-23T00:03:19;7.22;;;5.40;;
12966;SDS011;6548;49.996;8.238;2022-07-23T00:05:45;7.57;;;4.97;;
12966;SDS011;6548;49.996;8.238;2022-07-23T00:08:10;6.80;;;5.53;;
12966;SDS011;6548;49.996;8.238;2022-07-23T00:10:36;6.88;;;5.18;;
12966;SDS011;6548;49.996;8.238;2022-07-23T00:13:02;6.47;;;4.97;;
12966;SDS011;6548;49.996;8.238;2022-07-23T00:15:28;9.60;;;6.28;;
12966;SDS011;6548;49.996;8.238;2022-07-23T00:17:54;9.48;;;5.68;;
12966;SDS011;6548;49.996;8.238;2022-07-23T00:20:19;8.43;;;5.75;;
12966;SDS011;6548;49.996;8.238;2022-07-23T00:22:46;7.63;;;5.78;;
12966;SDS011;6548;49.996;8.238;2022-07-23T00:25:12;6.60;;;5.28;;
12966;SDS011;6548;49.996;8.238;2022-07-23T00:27:38;9.85;;;5.22;;
12966;SDS011;6548;49.996;8.238;2022-07-23T00:30:04;7.63;;;5.85;;
12966;SDS011;6548;49.996;8.238;2022-07-23T00:32:30;6.57;;;5.10;;
12966;SDS011;6548;49.996;8.238;2022-07-23T00:34:55;7.35;;;6.40;;
12966;SDS011;6548;49.996;8.238;2022-07-23T00:37:21;8.25;;;5.65;;
12966;SDS011;6548;49.996;8.238;2022-07-23T00:39:46;8.52;;;5.60;;
12966;SDS011;6548;49.996;8.238;2022-07-23T00:42:12;7.78;;;5.13;;
12966;SDS011;6548;49.996;8.238;2022-07-23T00:44:37;7.32;;;5.32;;
12966;SDS011;6548;49.996;8.238;2022-07-23T00:47:03;7.43;;;5.35;;
12966;SDS011;6548;49.996;8.238;2022-07-23T00:49:30;11.02;;;5.95;;
12966;SDS011;6548;49.996;8.238;2022-07-23T00:51:56;8.15;;;5.63;;
12966;SDS011;6548;49.996;8.238;2022-07-23T00:54:24;6.93;;;5.15;;
12966;SDS011;6548;49.996;8.238;2022-07-23T00:56:51;8.88;;;6.75;;
12966;SDS011;6548;49.996;8.238;2022-07-23T00:59:17;6.82;;;5.00;;
12966;SDS011;6548;49.996;8.238;2022-07-23T01:01:42;6.97;;;5.72;;
12966;SDS011;6548;49.996;8.238;2022-07-23T01:04:09;8.50;;;5.47;;
12966;SDS011;6548;49.996;8.238;2022-07-23T01:06:36;10.82;;;5.38;;
12966;SDS011;6548;49.996;8.238;2022-07-23T01:09:04;8.95;;;5.90;;
12966;SDS011;6548;49.996;8.238;2022-07-23T01:11:31;8.00;;;6.03;;
12966;SDS011;6548;49.996;8.238;2022-07-23T01:14:35;8.82;;;5.97;;
12966;SDS011;6548;49.996;8.238;2022-07-23T01:16:53;8.40;;;6.30;;
12966;SDS011;6548;49.996;8.238;2022-07-23T01:19:19;7.72;;;6.20;;
12966;SDS011;6548;49.996;8.238;2022-07-23T01:21:49;9.48;;;6.55;;
12966;SDS011;6548;49.996;8.238;2022-07-23T01:24:16;9.55;;;6.65;;
12966;SDS011;6548;49.996;8.238;2022-07-23T01:26:45;9.88;;;6.13;;
12966;SDS011;6548;49.996;8.238;2022-07-23T01:29:11;8.38;;;6.18;;
12966;SDS011;6548;49.996;8.238;2022-07-23T01:31:36;8.98;;;6.75;;
12966;SDS011;6548;49.996;8.238;2022-07-23T01:34:02;9.95;;;6.43;;
12966;SDS011;6548;49.996;8.238;2022-07-23T01:36:29;8.05;;;6.13;;
12966;SDS011;6548;49.996;8.238;2022-07-23T01:38:55;9.43;;;7.03;;
12966;SDS011;6548;49.996;8.238;2022-07-23T01:41:20;8.40;;;6.68;;
12966;SDS011;6548;49.996;8.238;2022-07-23T01:43:46;11.07;;;7.00;;
12966;SDS011;6548;49.996;8.238;2022-07-23T01:46:12;8.02;;;7.22;;
12966;SDS011;6548;49.996;8.238;2022-07-23T01:48:37;9.90;;;6.82;;
12966;SDS011;6548;49.996;8.238;2022-07-23T01:51:03;12.80;;;7.43;;
12966;SDS011;6548;49.996;8.238;2022-07-23T01:53:29;10.38;;;7.55;;
12966;SDS011;6548;49.996;8.238;2022-07-23T01:55:56;9.38;;;6.07;;
12966;SDS011;6548;49.996;8.238;2022-07-23T01:58:22;10.68;;;6.90;;
12966;SDS011;6548;49.996;8.238;2022-07-23T02:00:48;7.75;;;6.55;;
12966;SDS011;6548;49.996;8.238;2022-07-23T02:03:13;9.85;;;6.60;;
12966;SDS011;6548;49.996;8.238;2022-07-23T02:05:39;10.85;;;6.93;;
12966;SDS011;6548;49.996;8.238;2022-07-23T02:08:05;8.48;;;7.10;;
12966;SDS011;6548;49.996;8.238;2022-07-23T02:10:30;7.80;;;6.55;;
12966;SDS011;6548;49.996;8.238;2022-07-23T02:12:56;7.78;;;6.60;;
12966;SDS011;6548;49.996;8.238;2022-07-23T02:15:21;10.63;;;7.20;;
12966;SDS011;6548;49.996;8.238;2022-07-23T02:17:48;8.40;;;7.05;;
12966;SDS011;6548;49.996;8.238;2022-07-23T02:20:13;10.18;;;6.78;;
12966;SDS011;6548;49.996;8.238;2022-07-23T02:22:39;8.25;;;6.15;;
12966;SDS011;6548;49.996;8.238;2022-07-23T02:25:06;8.02;;;6.60;;
12966;SDS011;6548;49.996;8.238;2022-07-23T02:27:32;9.98;;;7.38;;
12966;SDS011;6548;49.996;8.238;2022-07-23T02:29:58;9.02;;;7.38;;
12966;SDS011;6548;49.996;8.238;2022-07-23T02:32:24;8.48;;;6.63;;
12966;SDS011;6548;49.996;8.238;2022-07-23T02:34:50;11.85;;;7.25;;
12966;SDS011;6548;49.996;8.238;2022-07-23T02:37:16;9.40;;;7.10;;
12966;SDS011;6548;49.996;8.238;2022-07-23T02:39:42;8.07;;;6.85;;
12966;SDS011;6548;49.996;8.238;2022-07-23T02:42:08;7.70;;;6.90;;
12966;SDS011;6548;49.996;8.238;2022-07-23T02:44:34;9.23;;;7.10;;
12966;SDS011;6548;49.996;8.238;2022-07-23T02:46:59;7.22;;;6.45;;
12966;SDS011;6548;49.996;8.238;2022-07-23T02:49:25;8.73;;;6.85;;
12966;SDS011;6548;49.996;8.238;2022-07-23T02:51:50;9.45;;;6.70;;
12966;SDS011;6548;49.996;8.238;2022-07-23T02:54:16;9.20;;;6.82;;
12966;SDS011;6548;49.996;8.238;2022-07-23T02:56:42;7.63;;;5.90;;
12966;SDS011;6548;49.996;8.238;2022-07-23T02:59:07;9.20;;;7.10;;
12966;SDS011;6548;49.996;8.238;2022-07-23T03:01:33;11.10;;;6.95;;
12966;SDS011;6548;49.996;8.238;2022-07-23T03:03:59;10.50;;;6.63;;
12966;SDS011;6548;49.996;8.238;2022-07-23T03:06:24;9.07;;;6.65;;
12966;SDS011;6548;49.996;8.238;2022-07-23T03:08:50;8.75;;;6.47;;
12966;SDS011;6548;49.996;8.238;2022-07-23T03:11:16;8.48;;;6.57;;
12966;SDS011;6548;49.996;8.238;2022-07-23T03:13:41;9.95;;;7.20;;
12966;SDS011;6548;49.996;8.238;2022-07-23T03:16:07;10.18;;;6.55;;
12966;SDS011;6548;49.996;8.238;2022-07-23T03:18:33;7.95;;;6.68;;
12966;SDS011;6548;49.996;8.238;2022-07-23T03:20:59;9.25;;;6.50;;
12966;SDS011;6548;49.996;8.238;2022-07-23T03:23:24;7.78;;;6.20;;
12966;SDS011;6548;49.996;8.238;2022-07-23T03:25:50;7.82;;;6.07;;
12966;SDS011;6548;49.996;8.238;2022-07-23T03:28:16;8.70;;;6.22;;
12966;SDS011;6548;49.996;8.238;2022-07-23T03:30:43;7.43;;;6.05;;
12966;SDS011;6548;49.996;8.238;2022-07-23T03:33:11;9.73;;;5.97;;
12966;SDS011;6548;49.996;8.238;2022-07-23T03:35:37;8.57;;;6.13;;
12966;SDS011;6548;49.996;8.238;2022-07-23T03:38:03;9.07;;;6.90;;
12966;SDS011;6548;49.996;8.238;2022-07-23T03:40:28;9.40;;;7.32;;
12966;SDS011;6548;49.996;8.238;2022-07-23T03:42:54;10.20;;;7.30;;
12966;SDS011;6548;49.996;8.238;2022-07-23T03:45:19;10.65;;;7.50;;
12966;SDS011;6548;49.996;8.238;2022-07-23T03:47:45;9.55;;;6.80;;
12966;SDS011;6548;49.996;8.238;2022-07-23T03:50:10;12.77;;;7.45;;
12966;SDS011;6548;49.996;8.238;2022-07-23T03:52:36;10.13;;;6.88;;
12966;SDS011;6548;49.996;8.238;2022-07-23T03:55:02;13.70;;;7.20;;
12966;SDS011;6548;49.996;8.238;2022-07-23T03:57:28;13.07;;;7.68;;
12966;SDS011;6548;49.996;8.238;2022-07-23T03:59:54;9.73;;;6.60;;
12966;SDS011;6548;49.996;8.238;2022-07-23T04:02:20;10.02;;;6.72;;
12966;SDS011;6548;49.996;8.238;2022-07-23T04:04:45;10.75;;;6.88;;
12966;SDS011;6548;49.996;8.238;2022-07-23T04:07:11;9.63;;;7.28;;
12966;SDS011;6548;49.996;8.238;2022-07-23T04:09:37;10.07;;;7.63;;
12966;SDS011;6548;49.996;8.238;2022-07-23T04:12:05;9.85;;;7.00;;
12966;SDS011;6548;49.996;8.238;2022-07-23T04:14:31;10.40;;;6.97;;
12966;SDS011;6548;49.996;8.238;2022-07-23T04:16:57;9.60;;;6.70;;
12966;SDS011;6548;49.996;8.238;2022-07-23T04:19:22;10.13;;;6.10;;
12966;SDS011;6548;49.996;8.238;2022-07-23T04:21:48;10.85;;;6.82;;
12966;SDS011;6548;49.996;8.238;2022-07-23T04:24:14;11.02;;;6.72;;
12966;SDS011;6548;49.996;8.238;2022-07-23T04:26:39;11.40;;;7.45;;
12966;SDS011;6548;49.996;8.238;2022-07-23T04:29:05;9.57;;;7.50;;
12966;SDS011;6548;49.996;8.238;2022-07-23T04:31:30;11.68;;;8.27;;
12966;SDS011;6548;49.996;8.238;2022-07-23T04:33:56;9.65;;;7.45;;
12966;SDS011;6548;49.996;8.238;2022-07-23T04:36:21;10.98;;;7.78;;
12966;SDS011;6548;49.996;8.238;2022-07-23T04:38:47;9.43;;;7.13;;
12966;SDS011;6548;49.996;8.238;2022-07-23T04:41:12;10.07;;;7.43;;
12966;SDS011;6548;49.996;8.238;2022-07-23T04:43:38;10.88;;;8.43;;
12966;SDS011;6548;49.996;8.238;2022-07-23T04:46:03;11.32;;;8.32;;
12966;SDS011;6548;49.996;8.238;2022-07-23T04:48:29;11.77;;;7.57;;
12966;SDS011;6548;49.996;8.238;2022-07-23T04:50:55;9.52;;;7.57;;
12966;SDS011;6548;49.996;8.238;2022-07-23T04:53:20;13.38;;;8.95;;
12966;SDS011;6548;49.996;8.238;2022-07-23T04:55:46;9.55;;;7.78;;
12966;SDS011;6548;49.996;8.238;2022-07-23T04:58:11;9.20;;;7.35;;
12966;SDS011;6548;49.996;8.238;2022-07-23T05:00:37;13.43;;;8.48;;
12966;SDS011;6548;49.996;8.238;2022-07-23T05:03:03;10.48;;;8.30;;
12966;SDS011;6548;49.996;8.238;2022-07-23T05:05:28;12.18;;;7.57;;
12966;SDS011;6548;49.996;8.238;2022-07-23T05:07:54;11.70;;;8.55;;
12966;SDS011;6548;49.996;8.238;2022-07-23T05:10:19;11.40;;;8.23;;
12966;SDS011;6548;49.996;8.238;2022-07-23T05:12:45;10.02;;;8.15;;
12966;SDS011;6548;49.996;8.238;2022-07-23T05:15:11;10.20;;;7.88;;
12966;SDS011;6548;49.996;8.238;2022-07-23T05:17:36;10.32;;;7.75;;
12966;SDS011;6548;49.996;8.238;2022-07-23T05:20:02;13.57;;;9.18;;
12966;SDS011;6548;49.996;8.238;2022-07-23T05:22:28;10.20;;;8.52;;
12966;SDS011;6548;49.996;8.238;2022-07-23T05:24:54;11.25;;;8.57;;
12966;SDS011;6548;49.996;8.238;2022-07-23T05:27:20;12.32;;;7.78;;
12966;SDS011;6548;49.996;8.238;2022-07-23T05:29:46;9.98;;;8.52;;
12966;SDS011;6548;49.996;8.238;2022-07-23T05:32:11;13.88;;;8.52;;
12966;SDS011;6548;49.996;8.238;2022-07-23T05:34:37;13.45;;;8.75;;
12966;SDS011;6548;49.996;8.238;2022-07-23T05:37:02;9.43;;;8.00;;
12966;SDS011;6548;49.996;8.238;2022-07-23T05:39:28;12.18;;;8.48;;
12966;SDS011;6548;49.996;8.238;2022-07-23T05:41:53;10.90;;;8.13;;
12966;SDS011;6548;49.996;8.238;2022-07-23T05:44:19;11.48;;;8.70;;
12966;SDS011;6548;49.996;8.238;2022-07-23T05:46:45;10.27;;;7.78;;
12966;SDS011;6548;49.996;8.238;2022-07-23T05:49:11;12.35;;;8.88;;
12966;SDS011;6548;49.996;8.238;2022-07-23T05:51:36;13.07;;;8.93;;
12966;SDS011;6548;49.996;8.238;2022-07-23T05:54:02;12.90;;;8.75;;
12966;SDS011;6548;49.996;8.238;2022-07-23T05:56:28;11.80;;;8.82;;
12966;SDS011;6548;49.996;8.238;2022-07-23T05:58:53;13.20;;;8.75;;
12966;SDS011;6548;49.996;8.238;2022-07-23T06:01:19;9.70;;;8.30;;
12966;SDS011;6548;49.996;8.238;2022-07-23T06:03:44;13.70;;;8.07;;
12966;SDS011;6548;49.996;8.238;2022-07-23T06:06:10;11.50;;;7.72;;
12966;SDS011;6548;49.996;8.238;2022-07-23T06:08:35;12.98;;;8.25;;
12966;SDS011;6548;49.996;8.238;2022-07-23T06:11:01;13.00;;;8.38;;
12966;SDS011;6548;49.996;8.238;2022-07-23T06:13:27;12.70;;;8.23;;
12966;SDS011;6548;49.996;8.238;2022-07-23T06:15:52;10.85;;;8.25;;
12966;SDS011;6548;49.996;8.238;2022-07-23T06:18:18;12.75;;;8.95;;
12966;SDS011;6548;49.996;8.238;2022-07-23T06:20:43;12.60;;;9.23;;
12966;SDS011;6548;49.996;8.238;2022-07-23T06:23:09;11.27;;;8.85;;
12966;SDS011;6548;49.996;8.238;2022-07-23T06:25:35;9.75;;;6.90;;
12966;SDS011;6548;49.996;8.238;2022-07-23T06:28:00;11.25;;;7.90;;
12966;SDS011;6548;49.996;8.238;2022-07-23T06:30:26;8.70;;;6.78;;
12966;SDS011;6548;49.996;8.238;2022-07-23T06:32:51;9.20;;;6.80;;
12966;SDS011;6548;49.996;8.238;2022-07-23T06:35:17;9.65;;;6.85;;
12966;SDS011;6548;49.996;8.238;2022-07-23T06:37:42;8.07;;;6.90;;
12966;SDS011;6548;49.996;8.238;2022-07-23T06:40:08;7.43;;;6.30;;
12966;SDS011;6548;49.996;8.238;2022-07-23T06:42:34;7.30;;;6.22;;
12966;SDS011;6548;49.996;8.238;2022-07-23T06:45:02;9.70;;;6.60;;
12966;SDS011;6548;49.996;8.238;2022-07-23T06:47:28;6.68;;;5.75;;
12966;SDS011;6548;49.996;8.238;2022-07-23T06:49:54;7.88;;;6.35;;
12966;SDS011;6548;49.996;8.238;2022-07-23T06:52:19;7.97;;;6.25;;
12966;SDS011;6548;49.996;8.238;2022-07-23T06:54:45;8.25;;;6.05;;
12966;SDS011;6548;49.996;8.238;2022-07-23T06:57:11;6.78;;;5.53;;
12966;SDS011;6548;49.996;8.238;2022-07-23T06:59:36;7.93;;;5.25;;
12966;SDS011;6548;49.996;8.238;2022-07-23T07:02:05;7.03;;;6.28;;
12966;SDS011;6548;49.996;8.238;2022-07-23T07:04:31;6.85;;;5.88;;
12966;SDS011;6548;49.996;8.238;2022-07-23T07:06:57;6.63;;;5.93;;
12966;SDS011;6548;49.996;8.238;2022-07-23T07:09:22;7.53;;;6.05;;
12966;SDS011;6548;49.996;8.238;2022-07-23T07:11:48;6.50;;;5.68;;
12966;SDS011;6548;49.996;8.238;2022-07-23T07:14:14;8.15;;;6.70;;
12966;SDS011;6548;49.996;8.238;2022-07-23T07:16:39;6.38;;;5.78;;
12966;SDS011;6548;49.996;8.238;2022-07-23T07:19:05;8.07;;;6.60;;
12966;SDS011;6548;49.996;8.238;2022-07-23T07:21:30;7.97;;;6.05;;
12966;SDS011;6548;49.996;8.238;2022-07-23T07:23:56;6.20;;;5.60;;
12966;SDS011;6548;49.996;8.238;2022-07-23T07:26:21;9.18;;;6.55;;
12966;SDS011;6548;49.996;8.238;2022-07-23T07:28:47;11.75;;;7.03;;
12966;SDS011;6548;49.996;8.238;2022-07-23T07:31:13;7.22;;;5.88;;
12966;SDS011;6548;49.996;8.238;2022-07-23T07:33:38;7.35;;;6.00;;
12966;SDS011;6548;49.996;8.238;2022-07-23T07:36:04;6.68;;;5.80;;
12966;SDS011;6548;49.996;8.238;2022-07-23T07:38:30;10.32;;;6.55;;
12966;SDS011;6548;49.996;8.238;2022-07-23T07:40:55;7.95;;;6.65;;
12966;SDS011;6548;49.996;8.238;2022-07-23T07:43:21;7.10;;;6.40;;
12966;SDS011;6548;49.996;8.238;2022-07-23T07:45:46;8.25;;;6.45;;
12966;SDS011;6548;49.996;8.238;2022-07-23T07:48:12;7.57;;;6.25;;
12966;SDS011;6548;49.996;8.238;2022-07-23T07:50:37;8.82;;;7.00;;
12966;SDS011;6548;49.996;8.238;2022-07-23T07:53:03;11.98;;;6.93;;
12966;SDS011;6548;49.996;8.238;2022-07-23T07:55:28;6.80;;;5.97;;
12966;SDS011;6548;49.996;8.238;2022-07-23T07:57:54;7.18;;;6.13;;
12966;SDS011;6548;49.996;8.238;2022-07-23T08:00:20;10.20;;;7.18;;
12966;SDS011;6548;49.996;8.238;2022-07-23T08:02:46;9.98;;;7.55;;
12966;SDS011;6548;49.996;8.238;2022-07-23T08:05:14;8.82;;;6.55;;
12966;SDS011;6548;49.996;8.238;2022-07-23T08:07:43;8.07;;;6.57;;
12966;SDS011;6548;49.996;8.238;2022-07-23T08:10:09;10.10;;;7.60;;
12966;SDS011;6548;49.996;8.238;2022-07-23T08:12:45;7.22;;;5.53;;
12966;SDS011;6548;49.996;8.238;2022-07-23T08:15:13;7.47;;;5.40;;
12966;SDS011;6548;49.996;8.238;2022-07-23T08:17:41;6.60;;;5.88;;
12966;SDS011;6548;49.996;8.238;2022-07-23T08:20:07;6.50;;;5.80;;
12966;SDS011;6548;49.996;8.238;2022-07-23T08:25:19;6.68;;;5.72;;
12966;SDS011;6548;49.996;8.238;2022-07-23T08:27:55;6.68;;;5.97;;
12966;SDS011;6548;49.996;8.238;2022-07-23T08:30:20;6.65;;;5.95;;
12966;SDS011;6548;49.996;8.238;2022-07-23T08:35:17;7.47;;;6.45;;
12966;SDS011;6548;49.996;8.238;2022-07-23T08:37:46;9.43;;;6.33;;
12966;SDS011;6548;49.996;8.238;2022-07-23T08:40:12;7.18;;;5.70;;
12966;SDS011;6548;49.996;8.238;2022-07-23T08:42:37;7.57;;;6.30;;
12966;SDS011;6548;49.996;8.238;2022-07-23T08:45:04;8.88;;;6.45;;
12966;SDS011;6548;49.996;8.238;2022-07-23T08:47:32;6.28;;;5.68;;
12966;SDS011;6548;49.996;8.238;2022-07-23T08:49:58;8.10;;;6.05;;
12966;SDS011;6548;49.996;8.238;2022-07-23T08:52:24;6.22;;;5.63;;
12966;SDS011;6548;49.996;8.238;2022-07-23T08:54:51;8.82;;;5.85;;
12966;SDS011;6548;49.996;8.238;2022-07-23T08:57:17;5.90;;;5.22;;
12966;SDS011;6548;49.996;8.238;2022-07-23T08:59:43;7.20;;;5.22;;
12966;SDS011;6548;49.996;8.238;2022-07-23T09:02:09;6.05;;;5.45;;
12966;SDS011;6548;49.996;8.238;2022-07-23T09:04:34;8.98;;;5.28;;
12966;SDS011;6548;49.996;8.238;2022-07-23T09:07:01;5.15;;;4.65;;
12966;SDS011;6548;49.996;8.238;2022-07-23T09:09:27;7.60;;;5.32;;
12966;SDS011;6548;49.996;8.238;2022-07-23T09:12:05;6.05;;;4.70;;
12966;SDS011;6548;49.996;8.238;2022-07-23T09:14:42;5.35;;;4.70;;
12966;SDS011;6548;49.996;8.238;2022-07-23T09:17:15;5.35;;;4.82;;
12966;SDS011;6548;49.996;8.238;2022-07-23T09:19:42;4.88;;;4.20;;
12966;SDS011;6548;49.996;8.238;2022-07-23T09:25:04;4.60;;;4.10;;
12966;SDS011;6548;49.996;8.238;2022-07-23T09:30:21;6.47;;;4.88;;
12966;SDS011;6548;49.996;8.238;2022-07-23T09:33:03;5.22;;;4.47;;
12966;SDS011;6548;49.996;8.238;2022-07-23T09:38:15;6.15;;;4.68;;
12966;SDS011;6548;49.996;8.238;2022-07-23T09:40:41;5.15;;;4.65;;
12966;SDS011;6548;49.996;8.238;2022-07-23T09:43:08;5.13;;;4.22;;
12966;SDS011;6548;49.996;8.238;2022-07-23T09:45:34;4.85;;;4.05;;
12966;SDS011;6548;49.996;8.238;2022-07-23T09:48:10;5.32;;;4.43;;
12966;SDS011;6548;49.996;8.238;2022-07-23T09:50:38;6.90;;;4.38;;
12966;SDS011;6548;49.996;8.238;2022-07-23T09:53:04;5.25;;;4.75;;
12966;SDS011;6548;49.996;8.238;2022-07-23T09:55:33;9.93;;;4.63;;
12966;SDS011;6548;49.996;8.238;2022-07-23T09:58:01;5.28;;;4.32;;
12966;SDS011;6548;49.996;8.238;2022-07-23T10:00:28;5.57;;;4.57;;
12966;SDS011;6548;49.996;8.238;2022-07-23T10:02:55;4.53;;;4.13;;
12966;SDS011;6548;49.996;8.238;2022-07-23T10:05:23;5.75;;;4.32;;
12966;SDS011;6548;49.996;8.238;2022-07-23T10:07:50;5.20;;;4.72;;
12966;SDS011;6548;49.996;8.238;2022-07-23T10:10:16;6.45;;;4.82;;
12966;SDS011;6548;49.996;8.238;2022-07-23T10:12:46;7.18;;;4.65;;
12966;SDS011;6548;49.996;8.238;2022-07-23T10:15:27;5.38;;;4.68;;
12966;SDS011;6548;49.996;8.238;2022-07-23T10:17:53;5.38;;;4.60;;
12966;SDS011;6548;49.996;8.238;2022-07-23T10:20:19;8.93;;;5.40;;
12966;SDS011;6548;49.996;8.238;2022-07-23T10:23:10;5.75;;;5.18;;
12966;SDS011;6548;49.996;8.238;2022-07-23T10:28:32;6.82;;;6.22;;
12966;SDS011;6548;49.996;8.238;2022-07-23T10:36:40;8.05;;;5.47;;
12966;SDS011;6548;49.996;8.238;2022-07-23T10:41:48;6.03;;;5.32;;
12966;SDS011;6548;49.996;8.238;2022-07-23T10:44:21;5.97;;;5.13;;
12966;SDS011;6548;49.996;8.238;2022-07-23T10:47:02;6.22;;;5.57;;
12966;SDS011;6548;49.996;8.238;2022-07-23T10:49:37;5.28;;;4.75;;
12966;SDS011;6548;49.996;8.238;2022-07-23T10:57:09;5.60;;;5.10;;
12966;SDS011;6548;49.996;8.238;2022-07-23T11:02:30;6.13;;;5.53;;
12966;SDS011;6548;49.996;8.238;2022-07-23T11:05:39;6.47;;;5.18;;
12966;SDS011;6548;49.996;8.238;2022-07-23T11:10:40;5.90;;;5.30;;
12966;SDS011;6548;49.996;8.238;2022-07-23T11:21:54;6.03;;;5.13;;
12966;SDS011;6548;49.996;8.238;2022-07-23T11:34:43;5.22;;;4.72;;
12966;SDS011;6548;49.996;8.238;2022-07-23T11:37:12;5.65;;;4.90;;
12966;SDS011;6548;49.996;8.238;2022-07-23T11:39:56;5.22;;;4.72;;
12966;SDS011;6548;49.996;8.238;2022-07-23T11:42:23;5.13;;;4.60;;
12966;SDS011;6548;49.996;8.238;2022-07-23T11:44:49;5.35;;;4.70;;
12966;SDS011;6548;49.996;8.238;2022-07-23T11:47:20;5.47;;;4.82;;
12966;SDS011;6548;49.996;8.238;2022-07-23T11:49:59;5.32;;;4.55;;
12966;SDS011;6548;49.996;8.238;2022-07-23T11:52:27;6.85;;;4.90;;
12966;SDS011;6548;49.996;8.238;2022-07-23T11:57:21;5.70;;;5.05;;
12966;SDS011;6548;49.996;8.238;2022-07-23T11:59:57;6.85;;;4.90;;
12966;SDS011;6548;49.996;8.238;2022-07-23T12:02:26;5.75;;;5.03;;
12966;SDS011;6548;49.996;8.238;2022-07-23T12:04:52;5.05;;;4.40;;
12966;SDS011;6548;49.996;8.238;2022-07-23T12:07:34;5.68;;;5.07;;
12966;SDS011;6548;49.996;8.238;2022-07-23T12:12:42;5.38;;;4.70;;
12966;SDS011;6548;49.996;8.238;2022-07-23T12:15:12;5.70;;;4.95;;
12966;SDS011;6548;49.996;8.238;2022-07-23T12:17:40;5.00;;;4.50;;
12966;SDS011;6548;49.996;8.238;2022-07-23T12:20:08;5.85;;;4.50;;
12966;SDS011;6548;49.996;8.238;2022-07-23T12:25:05;5.10;;;4.60;;
12966;SDS011;6548;49.996;8.238;2022-07-23T12:27:37;5.30;;;4.45;;
12966;SDS011;6548;49.996;8.238;2022-07-23T12:32:49;7.72;;;5.53;;
12966;SDS011;6548;49.996;8.238;2022-07-23T12:35:17;5.65;;;4.60;;
12966;SDS011;6548;49.996;8.238;2022-07-23T12:37:44;4.95;;;4.47;;
12966;SDS011;6548;49.996;8.238;2022-07-23T12:43:04;4.97;;;4.32;;
12966;SDS011;6548;49.996;8.238;2022-07-23T12:45:49;5.10;;;4.60;;
12966;SDS011;6548;49.996;8.238;2022-07-23T12:48:17;6.07;;;4.78;;
12966;SDS011;6548;49.996;8.238;2022-07-23T12:50:48;5.32;;;4.80;;
12966;SDS011;6548;49.996;8.238;2022-07-23T12:58:49;5.38;;;4.85;;
12966;SDS011;6548;49.996;8.238;2022-07-23T13:03:54;4.97;;;4.47;;
12966;SDS011;6548;49.996;8.238;2022-07-23T13:06:23;5.63;;;5.07;;
12966;SDS011;6548;49.996;8.238;2022-07-23T13:08:49;6.00;;;5.25;;
12966;SDS011;6548;49.996;8.238;2022-07-23T13:11:15;5.10;;;4.70;;
12966;SDS011;6548;49.996;8.238;2022-07-23T13:13:41;5.40;;;4.90;;
12966;SDS011;6548;49.996;8.238;2022-07-23T13:16:06;5.50;;;5.00;;
12966;SDS011;6548;49.996;8.238;2022-07-23T13:18:32;5.43;;;5.00;;
12966;SDS011;6548;49.996;8.238;2022-07-23T13:20:58;6.53;;;4.88;;
12966;SDS011;6548;49.996;8.238;2022-07-23T13:23:23;7.53;;;5.15;;
12966;SDS011;6548;49.996;8.238;2022-07-23T13:25:49;5.97;;;5.40;;
12966;SDS011;6548;49.996;8.238;2022-07-23T13:28:16;5.50;;;5.00;;
12966;SDS011;6548;49.996;8.238;2022-07-23T13:30:43;7.57;;;5.15;;
12966;SDS011;6548;49.996;8.238;2022-07-23T13:33:10;5.97;;;4.72;;
12966;SDS011;6548;49.996;8.238;2022-07-23T13:35:36;5.25;;;4.75;;
12966;SDS011;6548;49.996;8.238;2022-07-23T13:38:03;5.47;;;4.63;;
12966;SDS011;6548;49.996;8.238;2022-07-23T13:40:30;5.35;;;4.85;;
12966;SDS011;6548;49.996;8.238;2022-07-23T13:42:55;5.78;;;4.35;;
12966;SDS011;6548;49.996;8.238;2022-07-23T13:45:21;6.78;;;5.03;;
12966;SDS011;6548;49.996;8.238;2022-07-23T13:47:46;5.38;;;4.88;;
12966;SDS011;6548;49.996;8.238;2022-07-23T13:50:12;5.53;;;4.70;;
12966;SDS011;6548;49.996;8.238;2022-07-23T13:52:40;5.30;;;4.80;;
12966;SDS011;6548;49.996;8.238;2022-07-23T13:55:05;5.63;;;4.57;;
12966;SDS011;6548;49.996;8.238;2022-07-23T13:57:32;5.15;;;4.65;;
12966;SDS011;6548;49.996;8.238;2022-07-23T13:59:58;8.52;;;4.70;;
12966;SDS011;6548;49.996;8.238;2022-07-23T14:02:24;5.38;;;4.88;;
12966;SDS011;6548;49.996;8.238;2022-07-23T14:04:50;5.35;;;4.85;;
12966;SDS011;6548;49.996;8.238;2022-07-23T14:07:15;5.32;;;4.78;;
12966;SDS011;6548;49.996;8.238;2022-07-23T14:09:41;4.97;;;4.50;;
12966;SDS011;6548;49.996;8.238;2022-07-23T14:12:07;5.15;;;4.55;;
12966;SDS011;6548;49.996;8.238;2022-07-23T14:14:33;5.60;;;5.00;;
12966;SDS011;6548;49.996;8.238;2022-07-23T14:17:00;5.20;;;4.80;;
12966;SDS011;6548;49.996;8.238;2022-07-23T14:19:25;5.47;;;4.97;;
12966;SDS011;6548;49.996;8.238;2022-07-23T14:21:51;5.88;;;5.22;;
12966;SDS011;6548;49.996;8.238;2022-07-23T14:24:16;5.25;;;4.80;;
12966;SDS011;6548;49.996;8.238;2022-07-23T14:26:42;5.20;;;4.55;;
12966;SDS011;6548;49.996;8.238;2022-07-23T14:29:08;6.07;;;4.88;;
12966;SDS011;6548;49.996;8.238;2022-07-23T14:31:34;4.97;;;4.50;;
12966;SDS011;6548;49.996;8.238;2022-07-23T14:34:00;5.38;;;4.88;;
12966;SDS011;6548;49.996;8.238;2022-07-23T14:36:26;5.13;;;4.63;;
12966;SDS011;6548;49.996;8.238;2022-07-23T14:38:52;5.28;;;4.78;;
12966;SDS011;6548;49.996;8.238;2022-07-23T14:41:17;5.32;;;4.82;;
12966;SDS011;6548;49.996;8.238;2022-07-23T14:43:43;5.28;;;4.78;;
12966;SDS011;6548;49.996;8.238;2022-07-23T14:46:09;5.53;;;4.60;;
12966;SDS011;6548;49.996;8.238;2022-07-23T14:48:36;6.82;;;4.55;;
12966;SDS011;6548;49.996;8.238;2022-07-23T14:51:02;4.68;;;4.28;;
12966;SDS011;6548;49.996;8.238;2022-07-23T14:53:28;4.20;;;3.88;;
12966;SDS011;6548;49.996;8.238;2022-07-23T14:55:54;5.22;;;4.20;;
12966;SDS011;6548;49.996;8.238;2022-07-23T14:58:21;4.90;;;4.40;;
12966;SDS011;6548;49.996;8.238;2022-07-23T15:00:50;6.68;;;4.88;;
12966;SDS011;6548;49.996;8.238;2022-07-23T15:03:16;4.78;;;4.38;;
12966;SDS011;6548;49.996;8.238;2022-07-23T15:05:42;5.00;;;4.50;;
12966;SDS011;6548;49.996;8.238;2022-07-23T15:08:08;4.40;;;4.00;;
12966;SDS011;6548;49.996;8.238;2022-07-23T15:10:33;6.68;;;4.97;;
12966;SDS011;6548;49.996;8.238;2022-07-23T15:12:59;7.47;;;4.00;;
12966;SDS011;6548;49.996;8.238;2022-07-23T15:15:24;4.63;;;4.22;;
12966;SDS011;6548;49.996;8.238;2022-07-23T15:17:53;7.03;;;4.40;;
12966;SDS011;6548;49.996;8.238;2022-07-23T15:20:18;4.90;;;3.78;;
12966;SDS011;6548;49.996;8.238;2022-07-23T15:22:44;3.92;;;3.50;;
12966;SDS011;6548;49.996;8.238;2022-07-23T15:25:12;4.13;;;3.72;;
12966;SDS011;6548;49.996;8.238;2022-07-23T15:27:38;4.20;;;3.60;;
12966;SDS011;6548;49.996;8.238;2022-07-23T15:30:03;5.28;;;4.78;;
12966;SDS011;6548;49.996;8.238;2022-07-23T15:32:30;5.00;;;4.20;;
12966;SDS011;6548;49.996;8.238;2022-07-23T15:34:55;5.45;;;4.18;;
12966;SDS011;6548;49.996;8.238;2022-07-23T15:37:21;3.80;;;3.50;;
12966;SDS011;6548;49.996;8.238;2022-07-23T15:39:50;4.70;;;3.73;;
12966;SDS011;6548;49.996;8.238;2022-07-23T15:42:16;4.03;;;3.63;;
12966;SDS011;6548;49.996;8.238;2022-07-23T15:44:42;4.60;;;4.20;;
12966;SDS011;6548;49.996;8.238;2022-07-23T15:49:55;3.85;;;3.47;;
12966;SDS011;6548;49.996;8.238;2022-07-23T15:52:20;4.15;;;3.70;;
12966;SDS011;6548;49.996;8.238;2022-07-23T15:54:46;3.80;;;3.50;;
12966;SDS011;6548;49.996;8.238;2022-07-23T15:57:11;5.07;;;4.57;;
12966;SDS011;6548;49.996;8.238;2022-07-23T15:59:37;6.05;;;5.03;;
12966;SDS011;6548;49.996;8.238;2022-07-23T16:02:03;5.18;;;4.63;;
12966;SDS011;6548;49.996;8.238;2022-07-23T16:04:28;4.93;;;3.90;;
12966;SDS011;6548;49.996;8.238;2022-07-23T16:06:55;4.22;;;3.83;;
12966;SDS011;6548;49.996;8.238;2022-07-23T16:09:21;4.40;;;3.50;;
12966;SDS011;6548;49.996;8.238;2022-07-23T16:11:46;4.57;;;3.88;;
12966;SDS011;6548;49.996;8.238;2022-07-23T16:14:12;3.70;;;3.30;;